sensor_id;sensor_type;location;lat;lon;timestamp;temperature;humidity
24226;DHT22;51462;51.422;5.514;2024-03-08T00:00:40;7.50;99.90
24226;DHT22;51462;51.422;5.514;2024-03-08T00:03:08;8.00;99.90
24226;DHT22;51462;51.422;5.514;2024-03-08T00:05:35;8.00;99.90
24226;DHT22;51462;51.422;5.514;2024-03-08T00:08:01;8.00;99.90
24226;DHT22;51462;51.422;5.514;2024-03-08T00:10:27;8.30;99.90
24226;DHT22;51462;51.422;5.514;2024-03-08T00:12:54;8.10;99.90
24226;DHT22;51462;51.422;5.514;2024-03-08T00:15:20;7.80;99.90
24226;DHT22;51462;51.422;5.514;2024-03-08T00:17:48;7.80;99.90
24226;DHT22;51462;51.422;5.514;2024-03-08T00:20:13;7.90;99.90
24226;DHT22;51462;51.422;5.514;2024-03-08T00:22:39;7.80;99.90
24226;DHT22;51462;51.422;5.514;2024-03-08T00:25:06;7.40;99.90
24226;DHT22;51462;51.422;5.514;2024-03-08T00:27:34;7.30;99.90
24226;DHT22;51462;51.422;5.514;2024-03-08T00:30:00;7.40;99.90
24226;DHT22;51462;51.422;5.514;2024-03-08T00:32:28;7.30;99.90
24226;DHT22;51462;51.422;5.514;2024-03-08T00:34:54;7.50;99.90
24226;DHT22;51462;51.422;5.514;2024-03-08T00:37:21;7.70;99.90
24226;DHT22;51462;51.422;5.514;2024-03-08T00:39:50;7.50;99.90
24226;DHT22;51462;51.422;5.514;2024-03-08T00:42:17;7.90;99.90
24226;DHT22;51462;51.422;5.514;2024-03-08T00:44:43;8.00;99.90
24226;DHT22;51462;51.422;5.514;2024-03-08T00:47:09;8.10;99.90
24226;DHT22;51462;51.422;5.514;2024-03-08T00:49:35;7.70;99.90
24226;DHT22;51462;51.422;5.514;2024-03-08T00:52:03;7.50;99.90
24226;DHT22;51462;51.422;5.514;2024-03-08T00:54:31;7.70;99.90
24226;DHT22;51462;51.422;5.514;2024-03-08T00:56:56;8.10;99.90
24226;DHT22;51462;51.422;5.514;2024-03-08T00:59:22;7.90;99.90
24226;DHT22;51462;51.422;5.514;2024-03-08T01:01:47;7.60;99.90
24226;DHT22;51462;51.422;5.514;2024-03-08T01:04:13;7.50;99.90
24226;DHT22;51462;51.422;5.514;2024-03-08T01:06:39;7.40;99.90
24226;DHT22;51462;51.422;5.514;2024-03-08T01:09:04;7.60;99.90
24226;DHT22;51462;51.422;5.514;2024-03-08T01:11:33;7.90;99.90
24226;DHT22;51462;51.422;5.514;2024-03-08T01:13:59;7.70;99.90
24226;DHT22;51462;51.422;5.514;2024-03-08T01:16:24;7.30;99.90
24226;DHT22;51462;51.422;5.514;2024-03-08T01:18:50;7.10;99.90
24226;DHT22;51462;51.422;5.514;2024-03-08T01:21:15;7.00;99.90
24226;DHT22;51462;51.422;5.514;2024-03-08T01:23:41;7.20;99.90
24226;DHT22;51462;51.422;5.514;2024-03-08T01:26:07;7.20;99.90
24226;DHT22;51462;51.422;5.514;2024-03-08T01:28:33;6.70;99.90
24226;DHT22;51462;51.422;5.514;2024-03-08T01:31:00;6.50;99.90
24226;DHT22;51462;51.422;5.514;2024-03-08T01:33:27;6.50;99.90
24226;DHT22;51462;51.422;5.514;2024-03-08T01:35:53;7.00;99.90
24226;DHT22;51462;51.422;5.514;2024-03-08T01:38:21;6.70;99.90
24226;DHT22;51462;51.422;5.514;2024-03-08T01:40:48;6.70;99.90
24226;DHT22;51462;51.422;5.514;2024-03-08T01:43:25;6.80;99.90
24226;DHT22;51462;51.422;5.514;2024-03-08T01:45:52;6.50;99.90
24226;DHT22;51462;51.422;5.514;2024-03-08T01:48:19;6.20;99.90
24226;DHT22;51462;51.422;5.514;2024-03-08T01:50:45;6.40;99.90
24226;DHT22;51462;51.422;5.514;2024-03-08T01:53:11;6.00;99.90
24226;DHT22;51462;51.422;5.514;2024-03-08T01:55:40;6.10;99.90
24226;DHT22;51462;51.422;5.514;2024-03-08T01:58:09;6.00;99.90
24226;DHT22;51462;51.422;5.514;2024-03-08T02:00:36;6.10;99.90
24226;DHT22;51462;51.422;5.514;2024-03-08T02:03:05;6.00;99.90
24226;DHT22;51462;51.422;5.514;2024-03-08T02:05:31;6.30;99.90
24226;DHT22;51462;51.422;5.514;2024-03-08T02:07:57;6.20;99.90
24226;DHT22;51462;51.422;5.514;2024-03-08T02:10:22;6.40;99.90
24226;DHT22;51462;51.422;5.514;2024-03-08T02:12:49;5.90;99.90
24226;DHT22;51462;51.422;5.514;2024-03-08T02:15:16;5.80;99.90
24226;DHT22;51462;51.422;5.514;2024-03-08T02:17:41;6.10;99.90
24226;DHT22;51462;51.422;5.514;2024-03-08T02:20:07;6.20;99.90
24226;DHT22;51462;51.422;5.514;2024-03-08T02:22:34;6.80;99.90
24226;DHT22;51462;51.422;5.514;2024-03-08T02:25:02;6.90;99.90
24226;DHT22;51462;51.422;5.514;2024-03-08T02:27:28;6.40;99.90
24226;DHT22;51462;51.422;5.514;2024-03-08T02:29:55;6.20;99.90
24226;DHT22;51462;51.422;5.514;2024-03-08T02:32:22;6.00;99.90
24226;DHT22;51462;51.422;5.514;2024-03-08T02:34:48;5.80;99.90
24226;DHT22;51462;51.422;5.514;2024-03-08T02:37:15;5.70;99.90
24226;DHT22;51462;51.422;5.514;2024-03-08T02:39:40;6.20;99.90
24226;DHT22;51462;51.422;5.514;2024-03-08T02:42:06;5.70;99.90
24226;DHT22;51462;51.422;5.514;2024-03-08T02:44:32;5.60;99.90
24226;DHT22;51462;51.422;5.514;2024-03-08T02:46:59;6.30;99.90
24226;DHT22;51462;51.422;5.514;2024-03-08T02:49:25;6.20;99.90
24226;DHT22;51462;51.422;5.514;2024-03-08T02:51:52;5.90;99.90
24226;DHT22;51462;51.422;5.514;2024-03-08T02:54:18;6.00;99.90
24226;DHT22;51462;51.422;5.514;2024-03-08T02:56:45;5.90;99.90
24226;DHT22;51462;51.422;5.514;2024-03-08T02:59:12;6.10;99.90
24226;DHT22;51462;51.422;5.514;2024-03-08T03:01:38;6.20;99.90
24226;DHT22;51462;51.422;5.514;2024-03-08T03:04:04;6.30;99.90
24226;DHT22;51462;51.422;5.514;2024-03-08T03:06:29;6.50;99.90
24226;DHT22;51462;51.422;5.514;2024-03-08T03:08:55;5.90;99.90
24226;DHT22;51462;51.422;5.514;2024-03-08T03:11:22;6.10;99.90
24226;DHT22;51462;51.422;5.514;2024-03-08T03:13:48;6.20;99.90
24226;DHT22;51462;51.422;5.514;2024-03-08T03:16:18;6.30;99.90
24226;DHT22;51462;51.422;5.514;2024-03-08T03:18:45;6.40;99.90
24226;DHT22;51462;51.422;5.514;2024-03-08T03:21:11;6.80;99.90
24226;DHT22;51462;51.422;5.514;2024-03-08T03:23:38;6.00;99.90
24226;DHT22;51462;51.422;5.514;2024-03-08T03:26:11;6.00;99.90
24226;DHT22;51462;51.422;5.514;2024-03-08T03:28:37;6.20;99.90
24226;DHT22;51462;51.422;5.514;2024-03-08T03:31:06;6.60;99.90
24226;DHT22;51462;51.422;5.514;2024-03-08T03:33:32;7.10;99.90
24226;DHT22;51462;51.422;5.514;2024-03-08T03:35:59;6.70;99.90
24226;DHT22;51462;51.422;5.514;2024-03-08T03:38:26;6.50;99.90
24226;DHT22;51462;51.422;5.514;2024-03-08T03:40:53;7.00;99.90
24226;DHT22;51462;51.422;5.514;2024-03-08T03:43:23;6.10;99.90
24226;DHT22;51462;51.422;5.514;2024-03-08T03:45:48;5.70;99.90
24226;DHT22;51462;51.422;5.514;2024-03-08T03:48:14;6.00;99.90
24226;DHT22;51462;51.422;5.514;2024-03-08T03:50:39;6.50;99.90
24226;DHT22;51462;51.422;5.514;2024-03-08T03:53:05;6.50;99.90
24226;DHT22;51462;51.422;5.514;2024-03-08T03:55:33;5.90;99.90
24226;DHT22;51462;51.422;5.514;2024-03-08T03:57:59;6.20;99.90
24226;DHT22;51462;51.422;5.514;2024-03-08T04:00:26;6.20;99.90
24226;DHT22;51462;51.422;5.514;2024-03-08T04:02:52;6.30;99.90
24226;DHT22;51462;51.422;5.514;2024-03-08T04:05:18;5.70;99.90
24226;DHT22;51462;51.422;5.514;2024-03-08T04:07:43;5.80;99.90
24226;DHT22;51462;51.422;5.514;2024-03-08T04:10:10;5.40;99.90
24226;DHT22;51462;51.422;5.514;2024-03-08T04:12:37;5.90;99.90
24226;DHT22;51462;51.422;5.514;2024-03-08T04:15:03;6.40;99.90
24226;DHT22;51462;51.422;5.514;2024-03-08T04:17:28;6.60;99.90
24226;DHT22;51462;51.422;5.514;2024-03-08T04:19:54;6.30;99.90
24226;DHT22;51462;51.422;5.514;2024-03-08T04:22:20;6.40;99.90
24226;DHT22;51462;51.422;5.514;2024-03-08T04:24:46;6.70;99.90
24226;DHT22;51462;51.422;5.514;2024-03-08T04:27:12;6.50;99.90
24226;DHT22;51462;51.422;5.514;2024-03-08T04:29:38;6.40;99.90
24226;DHT22;51462;51.422;5.514;2024-03-08T04:32:04;6.20;99.90
24226;DHT22;51462;51.422;5.514;2024-03-08T04:34:30;6.30;99.90
24226;DHT22;51462;51.422;5.514;2024-03-08T04:37:02;6.20;99.90
24226;DHT22;51462;51.422;5.514;2024-03-08T04:39:30;6.30;99.90
24226;DHT22;51462;51.422;5.514;2024-03-08T04:41:59;6.00;99.90
24226;DHT22;51462;51.422;5.514;2024-03-08T04:44:28;6.60;99.90
24226;DHT22;51462;51.422;5.514;2024-03-08T04:46:54;6.40;99.90
24226;DHT22;51462;51.422;5.514;2024-03-08T04:49:20;6.10;99.90
24226;DHT22;51462;51.422;5.514;2024-03-08T04:51:47;6.30;99.90
24226;DHT22;51462;51.422;5.514;2024-03-08T04:54:12;6.20;99.90
24226;DHT22;51462;51.422;5.514;2024-03-08T04:56:38;6.60;99.90
24226;DHT22;51462;51.422;5.514;2024-03-08T04:59:04;6.30;99.90
24226;DHT22;51462;51.422;5.514;2024-03-08T05:01:33;6.40;99.90
24226;DHT22;51462;51.422;5.514;2024-03-08T05:03:59;6.30;99.90
24226;DHT22;51462;51.422;5.514;2024-03-08T05:06:24;6.00;99.90
24226;DHT22;51462;51.422;5.514;2024-03-08T05:08:50;6.30;99.90
24226;DHT22;51462;51.422;5.514;2024-03-08T05:11:16;6.30;99.90
24226;DHT22;51462;51.422;5.514;2024-03-08T05:13:41;6.50;99.90
24226;DHT22;51462;51.422;5.514;2024-03-08T05:16:07;6.40;99.90
24226;DHT22;51462;51.422;5.514;2024-03-08T05:18:33;6.40;99.90
24226;DHT22;51462;51.422;5.514;2024-03-08T05:20:59;6.50;99.90
24226;DHT22;51462;51.422;5.514;2024-03-08T05:23:24;6.60;99.90
24226;DHT22;51462;51.422;5.514;2024-03-08T05:25:50;6.60;99.90
24226;DHT22;51462;51.422;5.514;2024-03-08T05:28:15;6.80;99.90
24226;DHT22;51462;51.422;5.514;2024-03-08T05:30:41;6.80;99.90
24226;DHT22;51462;51.422;5.514;2024-03-08T05:33:07;6.20;99.90
24226;DHT22;51462;51.422;5.514;2024-03-08T05:35:36;6.50;99.90
24226;DHT22;51462;51.422;5.514;2024-03-08T05:38:01;6.90;99.90
24226;DHT22;51462;51.422;5.514;2024-03-08T05:40:27;6.80;99.90
24226;DHT22;51462;51.422;5.514;2024-03-08T05:42:57;7.10;99.90
24226;DHT22;51462;51.422;5.514;2024-03-08T05:45:23;6.60;99.90
24226;DHT22;51462;51.422;5.514;2024-03-08T05:47:50;6.90;99.90
24226;DHT22;51462;51.422;5.514;2024-03-08T05:50:17;7.20;99.90
24226;DHT22;51462;51.422;5.514;2024-03-08T05:52:43;6.60;99.90
24226;DHT22;51462;51.422;5.514;2024-03-08T05:55:08;6.00;99.90
24226;DHT22;51462;51.422;5.514;2024-03-08T05:57:35;6.10;99.90
24226;DHT22;51462;51.422;5.514;2024-03-08T06:00:05;6.50;99.90
24226;DHT22;51462;51.422;5.514;2024-03-08T06:02:31;6.40;99.90
24226;DHT22;51462;51.422;5.514;2024-03-08T06:04:56;6.90;99.90
24226;DHT22;51462;51.422;5.514;2024-03-08T06:07:22;6.90;99.90
24226;DHT22;51462;51.422;5.514;2024-03-08T06:09:47;7.20;99.90
24226;DHT22;51462;51.422;5.514;2024-03-08T06:12:13;6.60;99.90
24226;DHT22;51462;51.422;5.514;2024-03-08T06:14:44;6.20;99.90
24226;DHT22;51462;51.422;5.514;2024-03-08T06:17:11;6.30;99.90
24226;DHT22;51462;51.422;5.514;2024-03-08T06:19:37;6.20;99.90
24226;DHT22;51462;51.422;5.514;2024-03-08T06:22:02;6.50;99.90
24226;DHT22;51462;51.422;5.514;2024-03-08T06:24:31;6.50;99.90
24226;DHT22;51462;51.422;5.514;2024-03-08T06:26:57;6.90;99.90
24226;DHT22;51462;51.422;5.514;2024-03-08T06:29:22;7.20;99.90
24226;DHT22;51462;51.422;5.514;2024-03-08T06:31:49;6.80;99.90
24226;DHT22;51462;51.422;5.514;2024-03-08T06:34:15;6.90;99.90
24226;DHT22;51462;51.422;5.514;2024-03-08T06:36:41;6.70;99.90
24226;DHT22;51462;51.422;5.514;2024-03-08T06:39:06;6.40;99.90
24226;DHT22;51462;51.422;5.514;2024-03-08T06:41:36;6.40;99.90
24226;DHT22;51462;51.422;5.514;2024-03-08T06:44:01;6.50;99.90
24226;DHT22;51462;51.422;5.514;2024-03-08T06:46:27;7.00;99.90
24226;DHT22;51462;51.422;5.514;2024-03-08T06:48:53;7.40;99.90
24226;DHT22;51462;51.422;5.514;2024-03-08T06:51:19;7.30;99.90
24226;DHT22;51462;51.422;5.514;2024-03-08T06:53:44;7.20;99.90
24226;DHT22;51462;51.422;5.514;2024-03-08T06:56:10;6.80;99.90
24226;DHT22;51462;51.422;5.514;2024-03-08T06:58:36;6.80;99.90
24226;DHT22;51462;51.422;5.514;2024-03-08T07:01:01;6.90;99.90
24226;DHT22;51462;51.422;5.514;2024-03-08T07:03:29;6.70;99.90
24226;DHT22;51462;51.422;5.514;2024-03-08T07:05:56;7.20;99.90
24226;DHT22;51462;51.422;5.514;2024-03-08T07:08:23;7.10;99.90
24226;DHT22;51462;51.422;5.514;2024-03-08T07:10:49;7.10;99.90
24226;DHT22;51462;51.422;5.514;2024-03-08T07:13:15;6.80;99.90
24226;DHT22;51462;51.422;5.514;2024-03-08T07:15:40;7.00;99.90
24226;DHT22;51462;51.422;5.514;2024-03-08T07:18:07;7.20;99.90
24226;DHT22;51462;51.422;5.514;2024-03-08T07:20:34;7.30;99.90
24226;DHT22;51462;51.422;5.514;2024-03-08T07:23:00;6.80;99.90
24226;DHT22;51462;51.422;5.514;2024-03-08T07:25:25;7.20;99.90
24226;DHT22;51462;51.422;5.514;2024-03-08T07:27:55;6.50;99.90
24226;DHT22;51462;51.422;5.514;2024-03-08T07:30:22;6.60;99.90
24226;DHT22;51462;51.422;5.514;2024-03-08T07:33:07;7.30;99.90
24226;DHT22;51462;51.422;5.514;2024-03-08T07:35:33;7.20;99.90
24226;DHT22;51462;51.422;5.514;2024-03-08T07:38:04;7.20;99.90
24226;DHT22;51462;51.422;5.514;2024-03-08T07:40:31;7.30;99.90
24226;DHT22;51462;51.422;5.514;2024-03-08T07:42:57;7.30;99.90
24226;DHT22;51462;51.422;5.514;2024-03-08T07:45:23;7.40;99.90
24226;DHT22;51462;51.422;5.514;2024-03-08T07:47:49;7.70;99.90
24226;DHT22;51462;51.422;5.514;2024-03-08T07:50:16;7.80;99.90
24226;DHT22;51462;51.422;5.514;2024-03-08T07:52:42;7.90;99.90
24226;DHT22;51462;51.422;5.514;2024-03-08T07:55:08;7.80;99.90
24226;DHT22;51462;51.422;5.514;2024-03-08T07:57:34;7.50;99.90
24226;DHT22;51462;51.422;5.514;2024-03-08T07:59:59;7.50;99.90
24226;DHT22;51462;51.422;5.514;2024-03-08T08:02:25;7.50;99.90
24226;DHT22;51462;51.422;5.514;2024-03-08T08:04:50;7.70;99.90
24226;DHT22;51462;51.422;5.514;2024-03-08T08:07:16;7.50;99.90
24226;DHT22;51462;51.422;5.514;2024-03-08T08:09:41;7.20;99.90
24226;DHT22;51462;51.422;5.514;2024-03-08T08:12:10;7.60;99.90
24226;DHT22;51462;51.422;5.514;2024-03-08T08:14:40;7.90;99.90
24226;DHT22;51462;51.422;5.514;2024-03-08T08:17:06;7.80;99.90
24226;DHT22;51462;51.422;5.514;2024-03-08T08:19:34;7.60;99.90
24226;DHT22;51462;51.422;5.514;2024-03-08T08:22:01;7.70;99.90
24226;DHT22;51462;51.422;5.514;2024-03-08T08:24:27;7.70;99.90
24226;DHT22;51462;51.422;5.514;2024-03-08T08:26:53;7.90;99.90
24226;DHT22;51462;51.422;5.514;2024-03-08T08:29:19;7.70;99.90
24226;DHT22;51462;51.422;5.514;2024-03-08T08:31:46;7.60;99.90
24226;DHT22;51462;51.422;5.514;2024-03-08T08:34:12;7.70;99.90
24226;DHT22;51462;51.422;5.514;2024-03-08T08:36:39;7.70;99.90
24226;DHT22;51462;51.422;5.514;2024-03-08T08:39:05;7.80;99.90
24226;DHT22;51462;51.422;5.514;2024-03-08T08:41:36;7.70;99.90
24226;DHT22;51462;51.422;5.514;2024-03-08T08:44:02;7.90;99.90
24226;DHT22;51462;51.422;5.514;2024-03-08T08:46:27;8.00;99.90
24226;DHT22;51462;51.422;5.514;2024-03-08T08:48:54;7.90;99.90
24226;DHT22;51462;51.422;5.514;2024-03-08T08:51:19;7.70;99.90
24226;DHT22;51462;51.422;5.514;2024-03-08T08:53:45;7.80;99.90
24226;DHT22;51462;51.422;5.514;2024-03-08T08:56:13;7.90;99.90
24226;DHT22;51462;51.422;5.514;2024-03-08T08:58:45;8.10;99.90
24226;DHT22;51462;51.422;5.514;2024-03-08T09:01:10;7.90;99.90
24226;DHT22;51462;51.422;5.514;2024-03-08T09:03:37;7.70;99.90
24226;DHT22;51462;51.422;5.514;2024-03-08T09:06:07;7.80;99.90
24226;DHT22;51462;51.422;5.514;2024-03-08T09:08:38;7.90;99.90
24226;DHT22;51462;51.422;5.514;2024-03-08T09:11:03;7.90;99.90
24226;DHT22;51462;51.422;5.514;2024-03-08T09:13:29;8.10;99.90
24226;DHT22;51462;51.422;5.514;2024-03-08T09:15:55;8.10;99.90
24226;DHT22;51462;51.422;5.514;2024-03-08T09:18:20;7.80;99.90
24226;DHT22;51462;51.422;5.514;2024-03-08T09:20:46;7.90;99.90
24226;DHT22;51462;51.422;5.514;2024-03-08T09:23:12;8.10;99.90
24226;DHT22;51462;51.422;5.514;2024-03-08T09:25:38;8.00;99.90
24226;DHT22;51462;51.422;5.514;2024-03-08T09:28:04;8.10;99.90
24226;DHT22;51462;51.422;5.514;2024-03-08T09:30:33;8.10;99.90
24226;DHT22;51462;51.422;5.514;2024-03-08T09:33:00;8.10;99.90
24226;DHT22;51462;51.422;5.514;2024-03-08T09:35:26;8.20;99.90
24226;DHT22;51462;51.422;5.514;2024-03-08T09:37:51;8.20;99.90
24226;DHT22;51462;51.422;5.514;2024-03-08T09:40:18;8.30;99.90
24226;DHT22;51462;51.422;5.514;2024-03-08T09:42:46;8.30;99.90
24226;DHT22;51462;51.422;5.514;2024-03-08T09:45:12;8.30;99.90
24226;DHT22;51462;51.422;5.514;2024-03-08T09:47:41;8.20;99.90
24226;DHT22;51462;51.422;5.514;2024-03-08T09:50:08;8.40;99.90
24226;DHT22;51462;51.422;5.514;2024-03-08T09:52:41;8.30;99.90
24226;DHT22;51462;51.422;5.514;2024-03-08T09:55:10;8.30;99.90
24226;DHT22;51462;51.422;5.514;2024-03-08T09:57:40;8.30;99.90
24226;DHT22;51462;51.422;5.514;2024-03-08T10:00:08;8.50;99.90
24226;DHT22;51462;51.422;5.514;2024-03-08T10:02:46;8.40;99.90
24226;DHT22;51462;51.422;5.514;2024-03-08T10:05:13;8.60;99.90
24226;DHT22;51462;51.422;5.514;2024-03-08T10:07:39;8.60;99.90
24226;DHT22;51462;51.422;5.514;2024-03-08T10:10:05;8.60;99.90
24226;DHT22;51462;51.422;5.514;2024-03-08T10:12:34;8.70;99.90
24226;DHT22;51462;51.422;5.514;2024-03-08T10:15:00;8.70;99.90
24226;DHT22;51462;51.422;5.514;2024-03-08T10:17:26;8.70;99.90
24226;DHT22;51462;51.422;5.514;2024-03-08T10:19:52;8.60;99.90
24226;DHT22;51462;51.422;5.514;2024-03-08T10:22:19;8.80;99.90
24226;DHT22;51462;51.422;5.514;2024-03-08T10:24:47;8.80;99.90
24226;DHT22;51462;51.422;5.514;2024-03-08T10:27:12;8.80;99.90
24226;DHT22;51462;51.422;5.514;2024-03-08T10:29:38;8.90;99.90
24226;DHT22;51462;51.422;5.514;2024-03-08T10:32:08;8.90;99.90
24226;DHT22;51462;51.422;5.514;2024-03-08T10:34:34;8.90;99.90
24226;DHT22;51462;51.422;5.514;2024-03-08T10:37:15;9.00;99.90
24226;DHT22;51462;51.422;5.514;2024-03-08T10:40:03;9.10;99.90
24226;DHT22;51462;51.422;5.514;2024-03-08T10:42:40;9.10;99.90
24226;DHT22;51462;51.422;5.514;2024-03-08T10:45:26;9.10;99.90
24226;DHT22;51462;51.422;5.514;2024-03-08T10:50:35;9.30;99.90
24226;DHT22;51462;51.422;5.514;2024-03-08T10:53:03;9.40;99.90
24226;DHT22;51462;51.422;5.514;2024-03-08T10:55:33;9.40;99.90
24226;DHT22;51462;51.422;5.514;2024-03-08T10:58:01;9.40;99.90
24226;DHT22;51462;51.422;5.514;2024-03-08T11:00:27;9.50;99.90
24226;DHT22;51462;51.422;5.514;2024-03-08T11:02:53;9.50;99.90
24226;DHT22;51462;51.422;5.514;2024-03-08T11:05:41;9.50;99.90
24226;DHT22;51462;51.422;5.514;2024-03-08T11:08:19;9.60;99.90
24226;DHT22;51462;51.422;5.514;2024-03-08T11:10:52;9.60;99.90
24226;DHT22;51462;51.422;5.514;2024-03-08T11:13:40;9.70;99.90
24226;DHT22;51462;51.422;5.514;2024-03-08T11:16:39;9.80;99.90
24226;DHT22;51462;51.422;5.514;2024-03-08T11:21:36;9.80;99.90
24226;DHT22;51462;51.422;5.514;2024-03-08T11:24:11;9.90;99.90
24226;DHT22;51462;51.422;5.514;2024-03-08T11:26:39;9.70;99.90
24226;DHT22;51462;51.422;5.514;2024-03-08T11:32:17;10.00;99.90
24226;DHT22;51462;51.422;5.514;2024-03-08T11:34:46;10.00;99.90
24226;DHT22;51462;51.422;5.514;2024-03-08T11:37:14;10.00;99.90
24226;DHT22;51462;51.422;5.514;2024-03-08T11:39:45;10.10;99.90
24226;DHT22;51462;51.422;5.514;2024-03-08T11:42:11;10.20;99.90
24226;DHT22;51462;51.422;5.514;2024-03-08T11:44:37;10.30;99.90
24226;DHT22;51462;51.422;5.514;2024-03-08T11:47:07;10.50;99.90
24226;DHT22;51462;51.422;5.514;2024-03-08T11:49:33;10.50;99.90
24226;DHT22;51462;51.422;5.514;2024-03-08T11:51:59;10.50;99.90
24226;DHT22;51462;51.422;5.514;2024-03-08T11:54:24;10.50;99.90
24226;DHT22;51462;51.422;5.514;2024-03-08T11:56:52;10.60;99.90
24226;DHT22;51462;51.422;5.514;2024-03-08T11:59:17;10.60;99.90
24226;DHT22;51462;51.422;5.514;2024-03-08T12:01:43;10.60;99.90
24226;DHT22;51462;51.422;5.514;2024-03-08T12:04:12;10.60;99.90
24226;DHT22;51462;51.422;5.514;2024-03-08T12:06:41;10.60;99.90
24226;DHT22;51462;51.422;5.514;2024-03-08T12:09:12;10.70;99.90
24226;DHT22;51462;51.422;5.514;2024-03-08T12:11:38;10.70;99.90
24226;DHT22;51462;51.422;5.514;2024-03-08T12:14:04;10.70;99.90
24226;DHT22;51462;51.422;5.514;2024-03-08T12:16:30;10.80;99.90
24226;DHT22;51462;51.422;5.514;2024-03-08T12:18:56;11.00;99.90
24226;DHT22;51462;51.422;5.514;2024-03-08T12:21:22;11.10;99.90
24226;DHT22;51462;51.422;5.514;2024-03-08T12:24:09;11.00;99.90
24226;DHT22;51462;51.422;5.514;2024-03-08T12:26:38;11.00;99.90
24226;DHT22;51462;51.422;5.514;2024-03-08T12:29:23;11.30;99.90
24226;DHT22;51462;51.422;5.514;2024-03-08T12:31:54;11.20;99.90
24226;DHT22;51462;51.422;5.514;2024-03-08T12:34:21;11.50;99.90
24226;DHT22;51462;51.422;5.514;2024-03-08T12:36:48;11.50;99.90
24226;DHT22;51462;51.422;5.514;2024-03-08T12:39:16;11.30;99.90
24226;DHT22;51462;51.422;5.514;2024-03-08T12:41:43;11.30;99.90
24226;DHT22;51462;51.422;5.514;2024-03-08T12:44:09;11.50;99.90
24226;DHT22;51462;51.422;5.514;2024-03-08T12:46:37;11.50;99.90
24226;DHT22;51462;51.422;5.514;2024-03-08T12:49:07;11.20;99.90
24226;DHT22;51462;51.422;5.514;2024-03-08T12:51:32;11.50;99.90
24226;DHT22;51462;51.422;5.514;2024-03-08T12:54:01;11.60;99.90
24226;DHT22;51462;51.422;5.514;2024-03-08T12:56:31;11.70;99.90
24226;DHT22;51462;51.422;5.514;2024-03-08T12:58:58;12.00;99.90
24226;DHT22;51462;51.422;5.514;2024-03-08T13:01:23;12.10;99.90
24226;DHT22;51462;51.422;5.514;2024-03-08T13:03:49;12.00;99.90
24226;DHT22;51462;51.422;5.514;2024-03-08T13:06:18;12.40;99.90
24226;DHT22;51462;51.422;5.514;2024-03-08T13:08:47;12.50;99.90
24226;DHT22;51462;51.422;5.514;2024-03-08T13:11:13;12.20;99.90
24226;DHT22;51462;51.422;5.514;2024-03-08T13:13:42;12.30;99.90
24226;DHT22;51462;51.422;5.514;2024-03-08T13:16:08;12.50;99.90
24226;DHT22;51462;51.422;5.514;2024-03-08T13:18:35;12.50;99.90
24226;DHT22;51462;51.422;5.514;2024-03-08T13:21:00;12.50;99.90
24226;DHT22;51462;51.422;5.514;2024-03-08T13:23:32;12.50;99.90
24226;DHT22;51462;51.422;5.514;2024-03-08T13:25:59;12.60;99.90
24226;DHT22;51462;51.422;5.514;2024-03-08T13:28:24;12.60;99.90
24226;DHT22;51462;51.422;5.514;2024-03-08T13:30:55;12.40;99.90
24226;DHT22;51462;51.422;5.514;2024-03-08T13:33:23;12.80;99.90
24226;DHT22;51462;51.422;5.514;2024-03-08T13:35:49;12.60;99.90
24226;DHT22;51462;51.422;5.514;2024-03-08T13:38:16;12.70;99.90
24226;DHT22;51462;51.422;5.514;2024-03-08T13:40:43;12.50;99.90
24226;DHT22;51462;51.422;5.514;2024-03-08T13:43:09;12.70;99.90
24226;DHT22;51462;51.422;5.514;2024-03-08T13:45:35;12.90;99.90
24226;DHT22;51462;51.422;5.514;2024-03-08T13:48:06;12.70;99.90
24226;DHT22;51462;51.422;5.514;2024-03-08T13:50:32;12.40;99.90
24226;DHT22;51462;51.422;5.514;2024-03-08T13:52:57;13.00;99.90
24226;DHT22;51462;51.422;5.514;2024-03-08T13:55:23;13.50;99.90
24226;DHT22;51462;51.422;5.514;2024-03-08T13:57:52;13.30;99.90
24226;DHT22;51462;51.422;5.514;2024-03-08T14:00:18;13.70;99.90
24226;DHT22;51462;51.422;5.514;2024-03-08T14:02:44;13.80;99.90
24226;DHT22;51462;51.422;5.514;2024-03-08T14:05:09;13.90;99.90
24226;DHT22;51462;51.422;5.514;2024-03-08T14:07:37;14.20;99.90
24226;DHT22;51462;51.422;5.514;2024-03-08T14:10:03;14.50;99.90
24226;DHT22;51462;51.422;5.514;2024-03-08T14:12:28;14.50;99.90
24226;DHT22;51462;51.422;5.514;2024-03-08T14:14:57;14.10;99.90
24226;DHT22;51462;51.422;5.514;2024-03-08T14:17:25;13.70;99.90
24226;DHT22;51462;51.422;5.514;2024-03-08T14:19:52;14.30;99.90
24226;DHT22;51462;51.422;5.514;2024-03-08T14:22:18;14.30;99.90
24226;DHT22;51462;51.422;5.514;2024-03-08T14:24:44;14.10;99.90
24226;DHT22;51462;51.422;5.514;2024-03-08T14:27:10;14.30;99.90
24226;DHT22;51462;51.422;5.514;2024-03-08T14:29:37;14.90;99.90
24226;DHT22;51462;51.422;5.514;2024-03-08T14:32:04;14.90;99.90
24226;DHT22;51462;51.422;5.514;2024-03-08T14:34:34;15.70;99.90
24226;DHT22;51462;51.422;5.514;2024-03-08T14:37:00;15.50;99.90
24226;DHT22;51462;51.422;5.514;2024-03-08T14:39:26;16.40;99.90
24226;DHT22;51462;51.422;5.514;2024-03-08T14:41:54;17.10;99.90
24226;DHT22;51462;51.422;5.514;2024-03-08T14:44:21;17.00;99.90
24226;DHT22;51462;51.422;5.514;2024-03-08T14:46:55;16.60;99.90
24226;DHT22;51462;51.422;5.514;2024-03-08T14:49:22;16.40;99.90
24226;DHT22;51462;51.422;5.514;2024-03-08T14:51:47;16.40;99.90
24226;DHT22;51462;51.422;5.514;2024-03-08T14:54:13;16.50;99.90
24226;DHT22;51462;51.422;5.514;2024-03-08T14:56:39;17.00;99.90
24226;DHT22;51462;51.422;5.514;2024-03-08T14:59:07;16.60;99.90
24226;DHT22;51462;51.422;5.514;2024-03-08T15:01:34;17.40;99.90
24226;DHT22;51462;51.422;5.514;2024-03-08T15:04:03;18.20;99.90
24226;DHT22;51462;51.422;5.514;2024-03-08T15:06:37;18.60;99.90
24226;DHT22;51462;51.422;5.514;2024-03-08T15:09:04;18.50;99.90
24226;DHT22;51462;51.422;5.514;2024-03-08T15:11:38;18.10;99.90
24226;DHT22;51462;51.422;5.514;2024-03-08T15:14:05;17.90;99.90
24226;DHT22;51462;51.422;5.514;2024-03-08T15:16:38;17.20;99.90
24226;DHT22;51462;51.422;5.514;2024-03-08T15:19:08;17.10;99.90
24226;DHT22;51462;51.422;5.514;2024-03-08T15:21:34;17.60;99.90
24226;DHT22;51462;51.422;5.514;2024-03-08T15:24:02;17.00;99.90
24226;DHT22;51462;51.422;5.514;2024-03-08T15:26:31;16.30;99.90
24226;DHT22;51462;51.422;5.514;2024-03-08T15:28:57;17.10;99.90
24226;DHT22;51462;51.422;5.514;2024-03-08T15:31:23;16.70;99.90
24226;DHT22;51462;51.422;5.514;2024-03-08T15:33:52;16.40;99.90
24226;DHT22;51462;51.422;5.514;2024-03-08T15:36:28;16.70;99.90
24226;DHT22;51462;51.422;5.514;2024-03-08T15:38:56;16.80;99.90
24226;DHT22;51462;51.422;5.514;2024-03-08T15:41:22;16.60;99.90
24226;DHT22;51462;51.422;5.514;2024-03-08T15:43:50;15.80;99.90
24226;DHT22;51462;51.422;5.514;2024-03-08T15:46:16;15.90;99.90
24226;DHT22;51462;51.422;5.514;2024-03-08T15:48:42;16.00;99.90
24226;DHT22;51462;51.422;5.514;2024-03-08T15:51:08;16.00;99.90